Time;durP1;ratioP1;P1;durP2;ratioP2;P2;SDS_P1;SDS_P2;PMS_P1;PMS_P2;Temp;Humidity;BMP_temperature;BMP_pressure;BME280_temperature;BME280_humidity;BME280_pressure;Samples;Min_cycle;Max_cycle;Signal;HPM_P1;HPM_P2
2022/03/22 00:00:20;;;;;;;52.40;30.67;;;6.50;99.90;;;;;;5030510;28;20033;-76
2022/03/22 00:02:46;;;;;;;54.15;30.35;;;6.50;99.90;;;;;;5033079;28;20044;-75
2022/03/22 00:05:12;;;;;;;53.35;30.40;;;6.40;99.90;;;;;;5029910;28;20034;-76
2022/03/22 00:07:38;;;;;;;48.97;28.77;;;6.30;99.90;;;;;;5028751;28;20398;-76
2022/03/22 00:10:04;;;;;;;53.20;30.23;;;6.30;99.90;;;;;;5029316;28;20636;-76
2022/03/22 00:12:31;;;;;;;55.63;31.15;;;6.30;99.90;;;;;;5026872;28;20029;-76
2022/03/22 00:14:58;;;;;;;50.60;30.75;;;6.20;99.90;;;;;;5030009;28;20490;-75
2022/03/22 00:17:24;;;;;;;57.13;31.05;;;6.20;99.90;;;;;;5027060;28;20041;-76
2022/03/22 00:19:49;;;;;;;54.63;31.92;;;6.20;99.90;;;;;;5028777;28;20056;-76
2022/03/22 00:22:15;;;;;;;52.30;30.65;;;6.20;99.90;;;;;;5027666;28;20049;-76
2022/03/22 00:24:41;;;;;;;52.88;31.73;;;6.20;99.90;;;;;;5031317;28;20048;-76
2022/03/22 00:27:07;;;;;;;50.20;28.83;;;6.10;99.90;;;;;;5032701;28;20049;-76
2022/03/22 00:29:34;;;;;;;48.72;29.35;;;6.10;99.90;;;;;;5030516;28;20099;-76
2022/03/22 00:31:59;;;;;;;54.63;30.17;;;6.00;99.90;;;;;;5033122;28;20041;-76
2022/03/22 00:34:25;;;;;;;49.92;29.38;;;6.00;99.90;;;;;;5028802;28;20410;-76
2022/03/22 00:36:52;;;;;;;48.05;28.38;;;6.00;99.90;;;;;;5031117;28;20049;-76
2022/03/22 00:39:18;;;;;;;51.38;28.63;;;6.00;99.90;;;;;;5033026;28;20049;-76
2022/03/22 00:41:45;;;;;;;57.72;30.48;;;5.90;99.90;;;;;;5033290;28;20041;-76
2022/03/22 00:44:11;;;;;;;54.47;31.92;;;5.90;99.90;;;;;;5032525;28;20065;-75
2022/03/22 00:46:37;;;;;;;52.22;32.42;;;5.90;99.90;;;;;;5032403;28;20083;-75
2022/03/22 00:49:03;;;;;;;52.72;29.65;;;5.90;99.90;;;;;;5032835;28;20045;-75
2022/03/22 00:51:30;;;;;;;57.17;30.77;;;5.90;99.90;;;;;;5032146;28;20033;-76
2022/03/22 00:53:59;;;;;;;50.22;30.70;;;5.80;99.90;;;;;;5034626;28;20107;-75
2022/03/22 00:56:25;;;;;;;53.83;29.60;;;5.80;99.90;;;;;;5029826;28;20046;-75
2022/03/22 01:00:01;;;;;;;49.95;29.25;;;5.60;99.90;;;;;;5031596;28;20033;-75
2022/03/22 01:01:37;;;;;;;52.70;28.92;;;5.80;99.90;;;;;;5045615;28;20483;-75
2022/03/22 01:04:04;;;;;;;50.97;31.17;;;5.80;99.90;;;;;;5027477;28;20437;-75
2022/03/22 01:06:31;;;;;;;52.50;31.35;;;5.80;99.90;;;;;;5024591;28;20049;-76
2022/03/22 01:08:56;;;;;;;54.22;30.23;;;5.80;99.90;;;;;;5027483;28;20512;-75
2022/03/22 01:11:22;;;;;;;50.70;30.67;;;5.70;99.90;;;;;;5024966;28;20045;-75
2022/03/22 01:13:49;;;;;;;51.20;30.95;;;5.70;99.90;;;;;;5032593;28;20050;-76
2022/03/22 01:16:15;;;;;;;54.13;31.45;;;5.60;99.90;;;;;;5031777;28;20045;-76
2022/03/22 01:18:42;;;;;;;53.50;31.02;;;5.70;99.90;;;;;;5031802;28;20404;-75
2022/03/22 01:28:16;;;;;;;51.78;30.48;;;5.60;99.90;;;;;;5021085;28;20177;-75
2022/03/22 01:30:42;;;;;;;51.88;31.42;;;5.60;99.90;;;;;;5030213;28;20047;-75
2022/03/22 01:33:11;;;;;;;48.95;28.73;;;5.50;99.90;;;;;;5009249;28;20080;-76
2022/03/22 01:35:38;;;;;;;48.75;29.10;;;5.60;99.90;;;;;;5029078;28;20034;-75
2022/03/22 01:38:04;;;;;;;50.03;29.23;;;5.50;99.90;;;;;;5032164;28;20410;-76
2022/03/22 01:40:31;;;;;;;55.63;30.23;;;5.50;99.90;;;;;;5029239;28;20033;-75
2022/03/22 01:42:58;;;;;;;48.67;30.05;;;5.50;99.90;;;;;;5031986;28;20129;-76
2022/03/22 01:45:24;;;;;;;47.90;29.77;;;5.40;99.90;;;;;;5030388;28;20561;-76
2022/03/22 01:47:52;;;;;;;54.15;30.15;;;5.40;99.90;;;;;;5032004;28;20026;-76
2022/03/22 01:50:19;;;;;;;51.15;30.48;;;5.40;99.90;;;;;;5030719;28;20507;-76
2022/03/22 01:52:46;;;;;;;52.38;30.90;;;5.40;99.90;;;;;;5032258;28;20029;-75
2022/03/22 01:55:15;;;;;;;48.40;29.95;;;5.40;99.90;;;;;;5030694;28;20532;-76
2022/03/22 01:57:41;;;;;;;49.78;31.02;;;5.40;99.90;;;;;;5032816;28;20084;-76
2022/03/22 02:00:09;;;;;;;53.85;32.00;;;5.30;99.90;;;;;;5030597;28;20060;-75
2022/03/22 02:08:10;;;;;;;52.78;31.92;;;5.30;99.90;;;;;;5031900;28;20037;-75
2022/03/22 02:10:37;;;;;;;52.38;29.85;;;5.30;99.90;;;;;;5013146;28;20033;-75
2022/03/22 02:13:03;;;;;;;55.60;31.70;;;5.30;99.90;;;;;;5013809;28;20513;-76
2022/03/22 02:15:29;;;;;;;52.78;30.45;;;5.30;99.90;;;;;;5030114;28;20034;-75
2022/03/22 02:17:55;;;;;;;57.92;30.90;;;5.30;99.90;;;;;;5031642;28;20048;-75
2022/03/22 02:20:21;;;;;;;53.92;31.30;;;5.20;99.90;;;;;;5029458;28;20046;-76
2022/03/22 02:22:53;;;;;;;52.03;31.17;;;5.20;99.90;;;;;;5028789;28;20037;-76
2022/03/22 02:25:19;;;;;;;51.63;31.07;;;5.20;99.90;;;;;;5031478;28;20559;-76
2022/03/22 02:27:52;;;;;;;54.17;30.00;;;5.20;99.90;;;;;;5030747;28;20280;-76
2022/03/22 02:30:18;;;;;;;;;;;5.20;99.90;;;;;;5030621;28;20052;-76
2022/03/22 02:32:54;;;;;;;51.83;31.77;;;5.10;99.90;;;;;;5029761;28;19921;-75
2022/03/22 02:35:22;;;;;;;53.70;30.83;;;5.10;99.90;;;;;;5030825;28;20144;-77
2022/03/22 02:37:48;;;;;;;52.33;31.40;;;5.10;99.90;;;;;;5026896;28;20073;-75
2022/03/22 02:40:15;;;;;;;55.47;31.50;;;5.10;99.90;;;;;;5030507;28;20123;-75
2022/03/22 02:42:54;;;;;;;50.63;31.55;;;5.10;99.90;;;;;;5032152;28;20065;-75
2022/03/22 02:45:23;;;;;;;50.20;29.88;;;5.10;99.90;;;;;;5035846;28;20026;-76
2022/03/22 02:47:50;;;;;;;52.13;29.90;;;5.10;99.90;;;;;;5031084;28;20533;-75
2022/03/22 02:50:16;;;;;;;58.70;30.25;;;5.10;99.90;;;;;;5029050;28;20406;-76
2022/03/22 02:52:42;;;;;;;58.45;31.13;;;5.10;99.90;;;;;;4995802;28;20041;-76
2022/03/22 02:55:09;;;;;;;55.83;29.90;;;5.10;99.90;;;;;;5028183;28;20060;-75
2022/03/22 02:57:36;;;;;;;50.88;29.42;;;5.10;99.90;;;;;;5030318;28;20312;-75
2022/03/22 03:00:10;;;;;;;51.65;29.83;;;5.20;99.90;;;;;;5033515;28;20041;-75
2022/03/22 03:02:44;;;;;;;47.28;29.63;;;5.10;99.90;;;;;;5028386;28;20045;-75
2022/03/22 03:05:10;;;;;;;44.85;28.23;;;5.10;99.90;;;;;;5031063;28;20056;-76
2022/03/22 03:07:37;;;;;;;45.45;28.08;;;5.10;99.90;;;;;;5011336;28;20072;-76
2022/03/22 03:10:05;;;;;;;52.38;29.13;;;5.10;99.90;;;;;;5031289;28;20034;-75
2022/03/22 03:12:31;;;;;;;49.70;28.58;;;5.10;99.90;;;;;;5029430;28;20056;-75
2022/03/22 03:14:56;;;;;;;49.30;28.60;;;5.10;99.90;;;;;;5030982;28;20037;-76
2022/03/22 03:17:22;;;;;;;47.40;28.77;;;5.00;99.90;;;;;;5027980;28;20576;-76
2022/03/22 03:19:48;;;;;;;58.90;29.30;;;5.00;99.90;;;;;;5030294;28;20526;-75
2022/03/22 03:22:14;;;;;;;47.10;29.45;;;5.00;99.90;;;;;;5027787;28;20499;-76
2022/03/22 03:24:41;;;;;;;47.72;27.33;;;5.00;99.90;;;;;;5028665;28;20044;-76
2022/03/22 03:27:07;;;;;;;49.10;28.35;;;4.90;99.90;;;;;;5029255;28;20053;-76
2022/03/22 03:29:32;;;;;;;47.75;28.70;;;4.90;99.90;;;;;;4995270;28;20137;-76
2022/03/22 03:31:58;;;;;;;46.45;28.52;;;4.90;99.90;;;;;;5028816;28;20128;-76
2022/03/22 03:34:24;;;;;;;48.60;29.27;;;4.80;99.90;;;;;;5030864;28;20090;-75
2022/03/22 03:36:50;;;;;;;46.30;29.45;;;4.80;99.90;;;;;;5031112;28;20037;-76
2022/03/22 03:39:16;;;;;;;47.58;29.13;;;4.80;99.90;;;;;;5030552;28;20120;-76
2022/03/22 03:41:54;;;;;;;47.42;28.60;;;4.80;99.90;;;;;;5028319;28;20872;-75
2022/03/22 03:47:18;;;;;;;44.28;27.75;;;4.80;99.90;;;;;;5027080;28;20487;-75
2022/03/22 03:49:50;;;;;;;51.22;29.77;;;4.80;99.90;;;;;;5028828;28;20040;-76
2022/03/22 03:52:22;;;;;;;49.28;28.13;;;4.80;99.90;;;;;;5026999;28;20046;-75
2022/03/22 03:54:49;;;;;;;45.20;27.48;;;4.80;99.90;;;;;;5033420;28;20037;-75
2022/03/22 03:57:15;;;;;;;48.50;28.92;;;4.90;99.90;;;;;;4996242;28;20053;-75
2022/03/22 03:59:41;;;;;;;44.83;27.23;;;4.90;99.90;;;;;;5027167;28;20044;-75
2022/03/22 04:02:08;;;;;;;45.63;28.15;;;4.90;99.90;;;;;;5028421;28;20041;-76
2022/03/22 04:04:38;;;;;;;49.85;28.90;;;4.90;99.90;;;;;;5027313;28;20037;-75
2022/03/22 04:07:05;;;;;;;50.03;29.75;;;4.80;99.90;;;;;;5026481;28;20052;-75
2022/03/22 04:09:35;;;;;;;49.80;28.48;;;4.80;99.90;;;;;;5030692;28;20116;-75
2022/03/22 04:12:02;;;;;;;46.33;28.58;;;4.80;99.90;;;;;;5012189;28;20082;-75
2022/03/22 04:14:28;;;;;;;46.97;28.25;;;4.80;99.90;;;;;;5028675;28;20037;-75
2022/03/22 04:16:56;;;;;;;46.45;28.85;;;4.70;99.90;;;;;;5029121;28;20522;-75
2022/03/22 04:19:22;;;;;;;48.63;30.15;;;4.70;99.90;;;;;;5027628;28;20189;-75
2022/03/22 04:21:49;;;;;;;54.78;29.20;;;4.70;99.90;;;;;;5025311;28;20041;-76
2022/03/22 04:24:15;;;;;;;51.78;29.40;;;4.70;99.90;;;;;;5023027;28;20128;-75
2022/03/22 04:26:43;;;;;;;47.53;27.65;;;4.70;99.90;;;;;;5026815;28;20081;-75
2022/03/22 04:34:45;;;;;;;48.63;28.10;;;4.80;99.90;;;;;;5015041;28;20431;-76
2022/03/22 04:37:13;;;;;;;47.42;28.27;;;4.80;99.90;;;;;;5029700;28;20080;-75
2022/03/22 04:39:43;;;;;;;48.65;28.23;;;4.80;99.90;;;;;;5028472;28;20330;-75
2022/03/22 04:42:10;;;;;;;45.85;27.17;;;4.80;99.90;;;;;;5028199;28;20505;-75
2022/03/22 04:44:37;;;;;;;49.67;28.30;;;4.80;99.90;;;;;;5028661;28;20037;-75
2022/03/22 04:47:03;;;;;;;50.25;28.02;;;4.80;99.90;;;;;;5030115;28;20041;-75
2022/03/22 04:49:29;;;;;;;46.47;27.75;;;4.70;99.90;;;;;;5028025;28;20064;-75
2022/03/22 04:57:25;;;;;;;50.45;27.63;;;4.70;99.90;;;;;;5030274;28;20398;-75
2022/03/22 04:59:51;;;;;;;43.25;27.55;;;4.70;99.90;;;;;;5029226;28;20037;-75
2022/03/22 05:02:17;;;;;;;47.00;28.15;;;4.60;99.90;;;;;;5028478;28;20091;-76
2022/03/22 05:04:43;;;;;;;45.45;27.77;;;4.60;99.90;;;;;;5011990;28;20045;-76
2022/03/22 05:07:09;;;;;;;45.30;27.90;;;4.60;99.90;;;;;;5011242;28;20445;-75
2022/03/22 05:09:35;;;;;;;48.55;29.42;;;4.60;99.90;;;;;;5029632;28;20033;-75
2022/03/22 05:12:02;;;;;;;49.28;29.38;;;4.50;99.90;;;;;;5034145;28;20477;-75
2022/03/22 05:14:28;;;;;;;45.22;29.08;;;4.50;99.90;;;;;;5030988;28;20048;-75
2022/03/22 05:16:56;;;;;;;53.83;29.20;;;4.50;99.90;;;;;;5035175;28;20383;-75
2022/03/22 05:19:23;;;;;;;47.08;27.52;;;4.40;99.90;;;;;;5033167;28;20037;-75
2022/03/22 05:21:49;;;;;;;50.30;28.55;;;4.40;99.90;;;;;;5034453;28;20052;-75
2022/03/22 05:24:15;;;;;;;47.35;29.42;;;4.40;99.90;;;;;;5044648;28;20060;-75
2022/03/22 05:26:40;;;;;;;48.42;29.70;;;4.40;99.90;;;;;;5032994;28;20034;-75
2022/03/22 05:29:06;;;;;;;50.25;29.58;;;4.40;99.90;;;;;;5030920;28;20088;-76
2022/03/22 05:31:34;;;;;;;56.78;29.08;;;4.40;99.90;;;;;;5031575;28;20041;-75
2022/03/22 05:34:00;;;;;;;46.78;28.27;;;4.40;99.90;;;;;;5031676;28;20514;-75
2022/03/22 05:36:27;;;;;;;52.70;28.63;;;4.40;99.90;;;;;;5033470;28;20122;-75
2022/03/22 05:38:53;;;;;;;48.35;29.65;;;4.40;99.90;;;;;;5030917;28;20033;-75
2022/03/22 05:41:20;;;;;;;48.40;27.05;;;4.40;99.90;;;;;;5032981;28;20447;-75
2022/03/22 05:43:46;;;;;;;51.20;28.40;;;4.40;99.90;;;;;;5029708;28;20534;-75
2022/03/22 05:46:15;;;;;;;53.97;29.20;;;4.40;99.90;;;;;;5030736;28;20037;-75
2022/03/22 05:48:40;;;;;;;50.05;28.25;;;4.50;99.90;;;;;;5032280;28;20100;-75
2022/03/22 05:51:06;;;;;;;54.15;28.60;;;4.50;99.90;;;;;;5030762;28;20120;-75
2022/03/22 05:53:32;;;;;;;43.05;27.02;;;4.50;99.90;;;;;;5030211;28;20045;-75
2022/03/22 05:55:58;;;;;;;48.95;28.45;;;4.50;99.90;;;;;;5013213;28;20049;-75
2022/03/22 05:58:24;;;;;;;48.08;29.17;;;4.50;99.90;;;;;;5030647;28;20120;-75
2022/03/22 06:00:50;;;;;;;44.42;26.17;;;4.60;99.90;;;;;;5029953;28;20498;-75
2022/03/22 06:03:16;;;;;;;47.47;25.95;;;4.70;99.90;;;;;;5033729;28;20131;-75
2022/03/22 06:05:45;;;;;;;47.55;27.73;;;4.80;99.90;;;;;;5029521;28;20061;-75
2022/03/22 06:08:10;;;;;;;42.00;25.08;;;4.90;99.90;;;;;;5030010;28;20506;-75
2022/03/22 06:10:37;;;;;;;45.40;26.55;;;5.10;99.90;;;;;;5029485;28;20034;-75
2022/03/22 06:13:03;;;;;;;45.72;27.70;;;5.20;99.90;;;;;;5029017;28;20099;-75
2022/03/22 06:15:31;;;;;;;44.35;25.67;;;5.30;99.90;;;;;;5032307;28;20112;-75
2022/03/22 06:17:58;;;;;;;44.08;26.05;;;5.40;99.90;;;;;;5030769;28;20080;-76
2022/03/22 06:20:31;;;;;;;48.00;26.90;;;5.40;99.90;;;;;;5029068;28;20049;-75
2022/03/22 06:22:58;;;;;;;44.28;26.73;;;5.50;99.90;;;;;;5030479;28;20048;-75
2022/03/22 06:25:24;;;;;;;44.92;25.73;;;5.60;99.90;;;;;;5030511;28;20472;-76
2022/03/22 06:27:51;;;;;;;43.88;25.90;;;5.80;99.90;;;;;;5031646;28;20045;-75
2022/03/22 06:30:18;;;;;;;42.78;24.70;;;5.80;99.90;;;;;;5028072;28;20077;-75
2022/03/22 06:32:47;;;;;;;37.40;24.88;;;5.90;99.90;;;;;;5033951;28;20395;-75
2022/03/22 06:35:17;;;;;;;44.05;25.13;;;5.90;99.90;;;;;;5030266;28;20045;-75
2022/03/22 06:37:43;;;;;;;44.38;25.35;;;6.00;99.90;;;;;;5030707;28;20045;-75
2022/03/22 06:40:10;;;;;;;39.53;24.88;;;6.10;99.90;;;;;;5030422;28;20077;-75
2022/03/22 06:42:37;;;;;;;40.55;25.13;;;6.10;99.90;;;;;;5032080;28;20110;-75
2022/03/22 06:45:05;;;;;;;38.08;24.08;;;6.20;99.90;;;;;;5028722;28;20077;-75
2022/03/22 06:47:32;;;;;;;42.17;23.58;;;6.30;99.90;;;;;;5031144;28;20041;-75
2022/03/22 06:49:58;;;;;;;37.67;22.98;;;6.40;99.90;;;;;;5030918;28;20037;-75
2022/03/22 06:52:24;;;;;;;39.25;23.98;;;6.60;99.90;;;;;;5030971;28;20758;-75
2022/03/22 06:54:50;;;;;;;40.92;23.30;;;6.80;99.90;;;;;;5059441;28;20128;-75
2022/03/22 06:57:15;;;;;;;40.67;21.92;;;6.90;99.90;;;;;;4996062;28;20128;-75
2022/03/22 06:59:41;;;;;;;35.60;23.52;;;7.00;99.90;;;;;;5034624;28;20120;-75
2022/03/22 07:02:08;;;;;;;38.90;23.20;;;7.20;99.90;;;;;;5030031;28;20094;-75
2022/03/22 07:04:34;;;;;;;36.63;21.88;;;7.30;99.90;;;;;;5030780;28;20308;-75
2022/03/22 07:07:00;;;;;;;37.63;23.60;;;7.40;99.90;;;;;;5029198;28;20029;-75
2022/03/22 07:09:27;;;;;;;39.10;23.02;;;7.40;99.90;;;;;;5011814;28;20072;-75
2022/03/22 07:11:55;;;;;;;37.85;24.20;;;7.40;99.90;;;;;;5029922;28;20470;-75
2022/03/22 07:14:23;;;;;;;38.65;24.25;;;7.40;99.90;;;;;;5028906;28;20103;-75
2022/03/22 07:16:49;;;;;;;39.75;24.42;;;7.40;99.90;;;;;;5029945;28;20075;-75
2022/03/22 07:19:15;;;;;;;39.70;25.52;;;7.40;99.90;;;;;;5027228;28;20061;-75
2022/03/22 07:21:43;;;;;;;38.47;26.00;;;7.40;99.90;;;;;;5028039;28;20100;-75
2022/03/22 07:24:09;;;;;;;37.92;25.10;;;7.40;99.90;;;;;;5025547;28;20057;-75
2022/03/22 07:26:35;;;;;;;43.13;28.50;;;7.40;99.90;;;;;;5029178;28;20095;-75
2022/03/22 07:29:01;;;;;;;47.83;27.70;;;7.50;99.90;;;;;;5031227;28;20053;-75
2022/03/22 07:31:27;;;;;;;40.53;26.75;;;7.60;99.90;;;;;;5027526;28;20053;-75
2022/03/22 07:33:53;;;;;;;44.40;27.15;;;7.70;99.90;;;;;;5030683;28;20569;-75
2022/03/22 07:36:18;;;;;;;40.75;26.60;;;7.80;99.90;;;;;;5028892;28;20033;-75
2022/03/22 07:38:44;;;;;;;41.55;26.23;;;8.00;99.90;;;;;;5029937;28;20033;-75
2022/03/22 07:41:13;;;;;;;44.33;27.65;;;8.20;99.90;;;;;;5029191;28;20128;-75
2022/03/22 07:43:41;;;;;;;42.47;25.10;;;8.50;99.90;;;;;;5010846;28;20037;-76
2022/03/22 07:46:07;;;;;;;43.00;27.20;;;8.80;99.90;;;;;;5027682;28;20034;-76
2022/03/22 07:48:33;;;;;;;40.35;25.52;;;9.30;99.90;;;;;;5028081;28;20038;-76
2022/03/22 07:53:44;;;;;;;37.92;22.75;;;10.80;99.90;;;;;;5024421;28;20057;-76
2022/03/22 07:56:10;;;;;;;39.85;25.08;;;11.50;99.90;;;;;;5019314;28;20113;-76
2022/03/22 07:58:36;;;;;;;32.67;22.67;;;12.10;99.90;;;;;;5013310;28;20099;-76
2022/03/22 08:01:02;;;;;;;37.03;23.15;;;12.70;99.90;;;;;;5033945;28;20045;-76
2022/03/22 08:03:28;;;;;;;35.30;23.80;;;13.30;99.90;;;;;;5028817;28;20046;-76
2022/03/22 08:05:54;;;;;;;34.58;23.52;;;13.80;99.90;;;;;;5022396;28;20044;-76
2022/03/22 08:08:21;;;;;;;32.72;22.92;;;14.00;99.90;;;;;;5019941;28;20060;-76
2022/03/22 08:10:47;;;;;;;32.20;22.80;;;14.10;99.90;;;;;;5021700;28;20120;-76
2022/03/22 08:13:13;;;;;;;37.17;22.73;;;14.30;99.90;;;;;;5021895;28;20057;-76
2022/03/22 08:15:40;;;;;;;32.40;22.88;;;14.90;99.90;;;;;;5019344;28;20072;-76
2022/03/22 08:18:06;;;;;;;31.85;22.23;;;15.20;99.90;;;;;;5004005;28;20064;-76
2022/03/22 08:20:32;;;;;;;31.20;22.73;;;15.50;99.90;;;;;;5020397;28;20502;-76
2022/03/22 08:23:04;;;;;;;35.45;24.55;;;16.00;99.90;;;;;;5019788;28;20376;-76
2022/03/22 08:25:38;;;;;;;32.47;21.25;;;16.40;99.90;;;;;;5020153;28;20045;-74
2022/03/22 08:28:06;;;;;;;31.08;22.17;;;16.70;98.30;;;;;;5021867;28;20034;-75
2022/03/22 08:30:33;;;;;;;35.15;22.55;;;16.90;96.40;;;;;;5018883;28;20100;-74
2022/03/22 08:33:00;;;;;;;32.03;20.45;;;17.00;95.10;;;;;;5020805;28;20040;-74
2022/03/22 08:35:28;;;;;;;28.00;20.35;;;17.20;93.20;;;;;;5020015;28;20120;-74
2022/03/22 08:37:54;;;;;;;29.73;20.08;;;17.30;92.60;;;;;;5021542;28;20546;-74
2022/03/22 08:40:21;;;;;;;26.27;18.58;;;17.00;87.50;;;;;;5019624;28;20041;-74
2022/03/22 08:42:48;;;;;;;27.52;20.42;;;17.30;91.10;;;;;;5020941;28;20054;-75
2022/03/22 08:45:19;;;;;;;30.77;18.77;;;17.60;89.30;;;;;;5021769;28;20757;-75
2022/03/22 08:47:46;;;;;;;26.77;18.90;;;17.80;87.00;;;;;;5021003;28;20480;-75
2022/03/22 08:50:15;;;;;;;26.20;19.55;;;17.80;83.90;;;;;;5025179;28;20509;-74
2022/03/22 08:52:42;;;;;;;26.02;19.23;;;17.80;82.30;;;;;;5025212;28;20050;-76
2022/03/22 08:55:09;;;;;;;26.00;19.80;;;17.30;78.80;;;;;;5026979;28;20499;-76
2022/03/22 08:57:36;;;;;;;30.10;20.08;;;17.60;82.60;;;;;;5024443;28;20052;-76
2022/03/22 09:00:09;;;;;;;30.48;20.30;;;17.80;81.70;;;;;;5026643;28;20052;-76
2022/03/22 09:02:40;;;;;;;27.63;18.80;;;17.70;77.60;;;;;;5024904;28;20394;-76
2022/03/22 09:07:52;;;;;;;28.77;21.20;;;18.10;77.60;;;;;;5022300;28;20049;-76
2022/03/22 09:10:20;;;;;;;27.88;19.48;;;18.00;79.90;;;;;;5024459;28;20034;-76
2022/03/22 09:12:48;;;;;;;33.67;19.60;;;18.10;77.70;;;;;;5022584;28;20041;-77
2022/03/22 09:15:15;;;;;;;27.30;19.55;;;18.20;75.90;;;;;;5025157;28;20041;-76
2022/03/22 09:17:41;;;;;;;26.45;19.50;;;18.30;75.90;;;;;;5020604;28;20687;-75
2022/03/22 09:20:08;;;;;;;30.02;19.92;;;17.70;74.10;;;;;;5023263;28;20098;-75
2022/03/22 09:22:34;;;;;;;28.17;19.27;;;18.10;75.60;;;;;;5005264;28;20041;-76
2022/03/22 09:25:03;;;;;;;26.25;18.48;;;18.30;74.60;;;;;;5021705;28;20064;-76
2022/03/22 09:27:28;;;;;;;28.00;18.52;;;18.60;73.10;;;;;;5024489;28;20045;-74
2022/03/22 09:29:57;;;;;;;26.10;18.77;;;18.30;71.70;;;;;;5022617;28;20510;-75
2022/03/22 09:32:23;;;;;;;25.63;17.80;;;18.30;73.00;;;;;;5022787;28;20051;-75
2022/03/22 09:34:50;;;;;;;25.63;18.08;;;18.50;72.50;;;;;;5006441;28;20434;-76
2022/03/22 09:37:16;;;;;;;25.40;18.05;;;19.30;72.10;;;;;;5023923;28;20037;-76
2022/03/22 09:39:43;;;;;;;26.23;17.77;;;19.50;66.40;;;;;;5021552;28;20529;-76
2022/03/22 09:42:09;;;;;;;26.52;17.67;;;19.30;67.30;;;;;;5024261;28;20038;-75
2022/03/22 09:44:35;;;;;;;28.75;17.55;;;19.70;67.90;;;;;;5005885;28;20033;-76
2022/03/22 09:47:03;;;;;;;24.13;16.23;;;19.60;63.20;;;;;;5023654;28;20455;-76
2022/03/22 09:49:29;;;;;;;27.02;17.10;;;19.30;62.70;;;;;;5005989;28;20041;-76
2022/03/22 09:51:56;;;;;;;25.42;17.85;;;19.10;64.80;;;;;;5023533;28;20152;-76
2022/03/22 09:54:23;;;;;;;26.05;16.83;;;19.30;65.50;;;;;;5021346;28;20045;-78
2022/03/22 09:56:49;;;;;;;22.75;16.67;;;19.50;66.00;;;;;;5022590;28;20083;-79
2022/03/22 09:59:17;;;;;;;27.27;17.85;;;20.00;65.40;;;;;;5022964;28;20160;-78
2022/03/22 10:01:43;;;;;;;24.90;17.40;;;19.90;65.50;;;;;;5023699;28;20135;-79
2022/03/22 10:04:14;;;;;;;28.27;18.55;;;19.90;63.30;;;;;;5023471;28;20045;-79
2022/03/22 10:06:50;;;;;;;25.83;18.85;;;19.80;65.00;;;;;;5022872;28;20034;-78
2022/03/22 10:09:36;;;;;;;30.70;19.33;;;20.10;63.60;;;;;;5038146;28;20092;-78
2022/03/22 10:12:04;;;;;;;26.15;17.88;;;19.70;63.60;;;;;;5021997;28;20414;-79
2022/03/22 10:14:47;;;;;;;25.80;17.77;;;19.60;63.60;;;;;;5023089;28;20521;-78
2022/03/22 10:17:18;;;;;;;26.17;17.25;;;19.30;63.20;;;;;;4989642;28;20136;-79
2022/03/22 10:19:48;;;;;;;25.15;18.65;;;19.50;62.30;;;;;;5022384;28;20719;-78
2022/03/22 10:22:15;;;;;;;24.95;17.52;;;19.80;63.60;;;;;;5021209;28;20037;-78
2022/03/22 10:24:49;;;;;;;30.40;18.45;;;19.80;64.20;;;;;;5022978;28;20522;-78
2022/03/22 10:27:27;;;;;;;26.05;18.33;;;20.20;63.60;;;;;;5022019;28;20076;-79
2022/03/22 10:30:05;;;;;;;28.40;18.50;;;20.40;63.10;;;;;;5024399;28;20139;-78
2022/03/22 10:32:36;;;;;;;24.52;18.23;;;20.40;62.90;;;;;;5022407;28;20038;-79
2022/03/22 10:35:32;;;;;;;29.50;17.73;;;20.40;62.10;;;;;;5023349;28;20079;-78
2022/03/22 10:38:03;;;;;;;24.52;17.88;;;20.40;61.10;;;;;;5023016;28;20033;-79
2022/03/22 10:40:32;;;;;;;25.80;18.35;;;20.60;63.40;;;;;;5022105;28;20045;-79
2022/03/22 10:43:06;;;;;;;25.73;16.88;;;20.80;62.60;;;;;;5022235;28;20552;-79
2022/03/22 10:45:50;;;;;;;29.38;18.70;;;20.90;62.40;;;;;;5021886;28;20124;-79
2022/03/22 10:48:17;;;;;;;27.25;18.48;;;20.60;60.80;;;;;;5022721;28;20095;-81
2022/03/22 10:50:48;;;;;;;26.70;18.55;;;20.20;61.90;;;;;;5022522;28;20489;-81
2022/03/22 10:53:24;;;;;;;26.10;18.05;;;20.40;61.80;;;;;;5021331;28;20495;-82
2022/03/22 10:55:50;;;;;;;25.38;18.70;;;20.80;60.90;;;;;;5036841;28;20501;-83
2022/03/22 10:58:21;;;;;;;24.13;17.83;;;21.50;61.60;;;;;;5022890;28;20128;-79
2022/03/22 11:00:49;;;;;;;24.77;17.75;;;22.10;59.70;;;;;;5021662;28;20037;-82
2022/03/22 11:03:17;;;;;;;25.70;17.52;;;22.20;59.90;;;;;;5022370;28;20071;-77
2022/03/22 11:05:50;;;;;;;24.15;17.40;;;21.80;58.40;;;;;;5019616;28;20833;-79
2022/03/22 11:08:22;;;;;;;32.30;18.17;;;21.90;58.70;;;;;;5017798;28;20120;-78
2022/03/22 11:10:49;;;;;;;27.27;18.20;;;22.30;57.20;;;;;;5018110;28;20232;-78
2022/03/22 11:13:15;;;;;;;26.13;17.70;;;22.50;58.20;;;;;;5018568;28;20161;-78
2022/03/22 11:15:44;;;;;;;28.08;18.05;;;22.10;56.30;;;;;;5015675;28;20083;-77
2022/03/22 11:18:11;;;;;;;25.73;17.50;;;21.10;57.20;;;;;;5014585;28;20053;-77
2022/03/22 11:20:48;;;;;;;29.25;18.48;;;21.10;58.50;;;;;;5032987;28;20045;-78
2022/03/22 11:23:17;;;;;;;27.42;19.08;;;21.50;59.40;;;;;;5020381;28;20045;-77
2022/03/22 11:25:43;;;;;;;27.35;18.80;;;21.50;59.10;;;;;;5019848;28;20052;-77
2022/03/22 11:28:14;;;;;;;25.77;17.70;;;21.50;58.40;;;;;;5019802;28;20041;-77
2022/03/22 11:30:41;;;;;;;27.35;18.20;;;21.70;58.70;;;;;;5020947;28;20071;-77
2022/03/22 11:36:19;;;;;;;28.67;17.48;;;20.70;57.60;;;;;;5021211;28;20037;-77
2022/03/22 11:38:50;;;;;;;28.83;18.05;;;20.30;58.60;;;;;;5021455;28;20841;-78
2022/03/22 11:44:15;;;;;;;23.42;16.85;;;20.20;58.80;;;;;;5021395;28;20092;-78
2022/03/22 11:46:41;;;;;;;28.17;17.77;;;20.00;60.20;;;;;;5004814;28;20053;-79
2022/03/22 11:49:21;;;;;;;27.23;17.75;;;20.10;60.30;;;;;;5003859;28;20045;-78
2022/03/22 11:51:57;;;;;;;29.83;20.45;;;20.40;62.80;;;;;;5019654;28;20044;-78
2022/03/22 11:54:26;;;;;;;25.58;17.85;;;20.70;61.80;;;;;;5020298;28;20446;-79
2022/03/22 11:56:56;;;;;;;24.55;18.23;;;20.90;61.60;;;;;;5021890;28;20033;-80
2022/03/22 11:59:22;;;;;;;26.75;18.30;;;21.10;61.90;;;;;;5019312;28;20072;-79
2022/03/22 12:01:59;;;;;;;28.35;17.70;;;21.20;60.50;;;;;;5021190;28;20041;-81
2022/03/22 12:04:40;;;;;;;27.30;17.73;;;21.20;61.20;;;;;;5021255;28;20039;-81
2022/03/22 12:07:08;;;;;;;27.73;17.65;;;21.20;60.90;;;;;;5020438;28;20113;-81
2022/03/22 12:09:40;;;;;;;30.73;18.02;;;21.00;61.00;;;;;;5021090;28;20034;-81
2022/03/22 12:12:06;;;;;;;;;;;21.10;60.50;;;;;;5021349;28;20159;-81
2022/03/22 12:14:36;;;;;;;25.05;16.88;;;21.20;61.70;;;;;;5019493;28;20378;-81
2022/03/22 12:17:06;;;;;;;26.70;17.58;;;21.50;61.20;;;;;;5019147;28;20049;-81
2022/03/22 12:19:34;;;;;;;29.75;16.42;;;21.50;60.40;;;;;;5022255;28;20462;-81
2022/03/22 12:22:02;;;;;;;26.58;17.95;;;21.40;60.90;;;;;;5008061;28;20117;-79
2022/03/22 12:24:33;;;;;;;27.15;17.90;;;21.50;60.60;;;;;;5023331;28;20049;-80
2022/03/22 12:27:09;;;;;;;29.88;16.83;;;21.60;60.10;;;;;;5022676;28;20100;-80
2022/03/22 12:29:44;;;;;;;26.50;16.55;;;21.60;60.20;;;;;;5024694;28;20053;-80
2022/03/22 12:32:18;;;;;;;28.17;17.13;;;21.70;60.50;;;;;;5023852;28;20490;-80
2022/03/22 12:34:46;;;;;;;28.60;17.77;;;21.70;60.20;;;;;;5024455;28;20124;-80
2022/03/22 12:37:13;;;;;;;25.95;17.88;;;21.70;60.00;;;;;;5024303;28;20049;-81
2022/03/22 12:39:43;;;;;;;26.40;16.70;;;21.80;60.00;;;;;;5025046;28;20108;-80
2022/03/22 12:42:11;;;;;;;25.38;17.48;;;21.80;59.60;;;;;;5024131;28;20515;-79
2022/03/22 12:44:37;;;;;;;30.00;17.40;;;21.90;59.10;;;;;;5022541;28;20049;-78
2022/03/22 12:47:05;;;;;;;28.65;18.08;;;22.00;59.20;;;;;;5025311;28;20052;-79
2022/03/22 12:49:35;;;;;;;24.75;17.63;;;21.70;57.80;;;;;;5025073;28;20041;-78
2022/03/22 12:52:02;;;;;;;29.10;18.58;;;21.50;56.70;;;;;;5026051;28;20037;-78
2022/03/22 12:54:33;;;;;;;29.83;18.92;;;21.30;58.30;;;;;;5025339;28;20483;-80
2022/03/22 12:57:00;;;;;;;32.20;19.08;;;21.30;57.90;;;;;;5024093;28;20044;-80
2022/03/22 12:59:27;;;;;;;28.10;17.52;;;21.60;59.10;;;;;;5024107;28;20045;-79
2022/03/22 13:01:57;;;;;;;26.58;18.15;;;21.50;57.50;;;;;;5024119;28;20067;-79
2022/03/22 13:04:29;;;;;;;35.88;19.40;;;21.50;56.30;;;;;;5025041;28;20033;-80
2022/03/22 13:06:57;;;;;;;29.20;19.15;;;21.40;57.40;;;;;;5024706;28;20096;-78
2022/03/22 13:12:14;;;;;;;30.70;18.75;;;21.70;57.80;;;;;;5024304;28;20072;-79
2022/03/22 13:17:43;;;;;;;29.58;19.38;;;22.00;57.10;;;;;;5024279;28;20128;-79
2022/03/22 13:20:24;;;;;;;29.02;18.77;;;21.90;57.30;;;;;;5023793;28;20045;-81